»·PEaware :: N623PA KONT-KLAS

N623PA :: KONT-KLAS

FLIGHT INFORMATION

Flight Status: Arrived
Operator: Privately registered:
United States
More flights under this callsign
Pilot: Sanjiv Singh (4490)
Aircraft: MCDONNELL-DOUGLAS DC-6/B LIFTMASTER
(DC6)
More flights by this aircraft type
Origin: KONT Ontario Intl
United States
Destination: KLAS McCarran Intl
United States
More flights between these airports :: More routes between these airports
Route: +PDZ J60 DAG CRESO3
File this flight plan on PilotEdge
Remarks:
Altitude:
(Current/Filed)
21,000ft
Speed:
(Current/Filed)
240kts
Departed: 24-Oct-16 09:00 AM
Arrived: 24-Oct-16 10:08 AM
Distance/Time
Traveled:
170nm/1:08
Distance/Time
To Go:
Arrived

Flight Plot

Page will automatically refresh every two minutes.

Flight plan parsing failed; only flown route is shown


Map Options




Map Legend


Flown Route
Filed Route
Departure Airport
Arrival Airport
Navaid (VOR, NDB)
Fix

Horizontal Profiles

Position Reports

Time Latitude Longitude Heading Altitude Ground
Speed
24-Oct-16 08:35 34.052988 -117.604072 179 952ft 0kts
24-Oct-16 08:36 34.052988 -117.604072 179 952ft 0kts
24-Oct-16 08:37 34.052988 -117.604072 179 952ft 0kts
24-Oct-16 08:38 34.052988 -117.604072 179 952ft 0kts
24-Oct-16 08:39 34.052988 -117.604072 179 952ft 0kts
24-Oct-16 08:40 34.052988 -117.604072 179 952ft 0kts
24-Oct-16 08:41 34.052988 -117.604072 179 952ft 0kts
24-Oct-16 08:42 34.052988 -117.604072 179 952ft 0kts
24-Oct-16 08:43 34.052988 -117.604072 179 952ft 0kts
24-Oct-16 08:44 34.052988 -117.604072 179 952ft 0kts
24-Oct-16 08:45 34.052988 -117.604072 179 952ft 0kts
24-Oct-16 08:46 34.052988 -117.604072 179 952ft 0kts
24-Oct-16 08:47 34.052988 -117.604072 179 952ft 0kts
24-Oct-16 08:48 34.052916 -117.604016 112 952ft 1kts
24-Oct-16 08:49 34.053524 -117.603544 341 952ft 9kts
24-Oct-16 08:50 34.053879 -117.599347 89 952ft 18kts
24-Oct-16 08:51 34.053900 -117.592295 88 952ft 22kts
24-Oct-16 08:52 34.053942 -117.584691 88 952ft 18kts
24-Oct-16 08:53 34.054310 -117.582711 356 952ft 0kts
24-Oct-16 08:54 34.054952 -117.583075 275 952ft 0kts
24-Oct-16 08:55 34.054938 -117.597297 267 968ft 119kts
24-Oct-16 08:56 34.052940 -117.639675 266 1736ft 143kts
24-Oct-16 08:57 34.049888 -117.695353 266 2211ft 188kts
24-Oct-16 08:58 34.046292 -117.756197 266 2896ft 180kts
24-Oct-16 08:59 34.014993 -117.765248 102 3312ft 163kts
24-Oct-16 09:00 33.996751 -117.716915 110 3832ft 161kts
24-Oct-16 09:01 33.980816 -117.667978 110 4413ft 155kts
24-Oct-16 09:02 33.966267 -117.619376 110 4929ft 155kts
24-Oct-16 09:03 33.953018 -117.570300 110 5414ft 155kts
24-Oct-16 09:04 33.940885 -117.520747 110 5968ft 152kts
24-Oct-16 09:05 33.941229 -117.472272 35 6380ft 173kts
24-Oct-16 09:06 33.983611 -117.444770 30 6878ft 174kts
24-Oct-16 09:07 34.022947 -117.411597 41 7432ft 176kts
24-Oct-16 09:08 34.056139 -117.370214 41 7972ft 176kts
24-Oct-16 09:09 34.089053 -117.328785 41 8467ft 177kts
24-Oct-16 09:10 34.122735 -117.286556 41 8927ft 180kts
24-Oct-16 09:11 34.157966 -117.243990 30 9378ft 181kts
24-Oct-16 09:12 34.203770 -117.223926 11 9821ft 179kts
24-Oct-16 09:13 34.250988 -117.205589 11 10263ft 183kts
24-Oct-16 09:14 34.299718 -117.185744 31 10679ft 191kts
24-Oct-16 09:15 34.335050 -117.152596 35 11047ft 194kts
24-Oct-16 09:16 34.379339 -117.115872 31 11492ft 196kts
24-Oct-16 09:17 34.426774 -117.064660 52 11988ft 198kts
24-Oct-16 09:18 34.457063 -117.022629 51 12361ft 200kts
24-Oct-16 09:19 34.490127 -116.971808 58 12790ft 200kts
24-Oct-16 09:20 34.522974 -116.917855 58 13312ft 197kts
24-Oct-16 09:21 34.555435 -116.864379 59 13764ft 198kts
24-Oct-16 09:22 34.588023 -116.810577 59 14154ft 198kts
24-Oct-16 09:23 34.620711 -116.756503 59 14494ft 199kts
24-Oct-16 09:24 34.653648 -116.701923 59 14839ft 201kts
24-Oct-16 09:25 34.686772 -116.646944 59 15206ft 203kts
24-Oct-16 09:26 34.720122 -116.591493 59 15596ft 205kts
24-Oct-16 09:27 34.753919 -116.535208 59 16007ft 208kts
24-Oct-16 09:28 34.788030 -116.478317 59 16420ft 210kts
24-Oct-16 09:29 34.828063 -116.425667 46 16827ft 215kts
24-Oct-16 09:30 34.871966 -116.374611 46 17013ft 231kts
24-Oct-16 09:31 34.918786 -116.319608 46 16985ft 255kts
24-Oct-16 09:32 34.971085 -116.257892 45 16931ft 273kts
24-Oct-16 09:33 35.026180 -116.192805 45 16864ft 282kts
24-Oct-16 09:34 35.082899 -116.125704 45 16513ft 296kts
24-Oct-16 09:35 35.139416 -116.059040 44 15801ft 304kts
24-Oct-16 09:36 35.198862 -115.988719 45 15245ft 301kts
24-Oct-16 09:37 35.257730 -115.918783 45 14707ft 298kts
24-Oct-16 09:38 35.315675 -115.849739 45 14180ft 295kts
24-Oct-16 09:39 35.360090 -115.770947 78 13614ft 285kts
24-Oct-16 09:40 35.383048 -115.680148 70 13103ft 284kts
24-Oct-16 09:41 35.421093 -115.596661 57 12591ft 284kts
24-Oct-16 09:42 35.469071 -115.520074 51 12080ft 282kts
24-Oct-16 09:43 35.519971 -115.449771 47 11875ft 268kts
24-Oct-16 09:44 35.568669 -115.386904 46 12023ft 247kts
24-Oct-16 09:45 35.614624 -115.329323 46 12020ft 236kts
24-Oct-16 09:46 35.659754 -115.273591 46 12020ft 226kts
24-Oct-16 09:47 35.711410 -115.232657 21 11703ft 233kts
24-Oct-16 09:48 35.772089 -115.199623 21 11231ft 246kts
24-Oct-16 09:49 35.836549 -115.163919 21 10519ft 263kts
24-Oct-16 09:50 35.904454 -115.126066 21 9753ft 272kts
24-Oct-16 09:51 35.973621 -115.087543 21 9027ft 273kts
24-Oct-16 09:52 36.042638 -115.079719 336 8270ft 259kts
24-Oct-16 09:53 36.109892 -115.098399 17 7225ft 277kts
24-Oct-16 09:54 36.129580 -115.013800 94 6010ft 281kts
24-Oct-16 09:55 36.117786 -114.922000 131 5108ft 269kts
24-Oct-16 09:56 36.071077 -114.941954 274 4973ft 217kts
24-Oct-16 09:57 36.090587 -115.006393 302 5020ft 183kts
24-Oct-16 09:58 36.117895 -115.047878 315 4742ft 139kts
24-Oct-16 09:59 36.142537 -115.081994 302 4036ft 137kts
24-Oct-16 10:00 36.150548 -115.125997 236 3460ft 142kts
24-Oct-16 10:01 36.118508 -115.144725 207 2653ft 114kts
24-Oct-16 10:02 36.090765 -115.161530 206 2150ft 87kts
24-Oct-16 10:03 36.083780 -115.166615 231 2150ft 0kts
24-Oct-16 10:04 36.083375 -115.167124 215 2150ft 9kts
24-Oct-16 10:05 36.082079 -115.168894 206 2150ft 6kts
24-Oct-16 10:06 36.081496 -115.170501 267 2150ft 5kts
24-Oct-16 10:07 36.081155 -115.170661 90 2150ft 0kts

Navigation Log

Ident Type Via Name
Flight plan parsing failed, navigation log unavailable